Time;durP1;ratioP1;P1;durP2;ratioP2;P2;SDS_P1;SDS_P2;PMS_P1;PMS_P2;Temp;Humidity;BMP_temperature;BMP_pressure;BME280_temperature;BME280_humidity;BME280_pressure;Samples;Min_cycle;Max_cycle;Signal;HPM_P1;HPM_P2
2023/03/14 00:02:15;;;;;;;;;;;;;;;13.13;68.52;95428.63;5011751;28;19936;-83
2023/03/14 00:04:40;;;;;;;;;;;;;;;12.88;68.87;95436.06;5012169;28;19917;-81
2023/03/14 00:07:06;;;;;;;;;;;;;;;12.69;69.63;95420.63;4997189;28;19924;-85
2023/03/14 00:09:31;;;;;;;;;;;;;;;12.93;69.43;95428.84;5014094;28;19996;-83
2023/03/14 00:11:56;;;;;;;;;;;;;;;13.22;68.02;95434.63;5013114;28;19917;-81
2023/03/14 00:14:22;;;;;;;;;;;;;;;13.11;68.38;95428.91;4996662;28;19924;-82
2023/03/14 00:16:48;;;;;;;;;;;;;;;12.97;69.23;95402.91;5017457;28;19919;-82
2023/03/14 00:19:13;;;;;;;;;;;;;;;13.10;68.81;95402.00;5012389;28;19978;-83
2023/03/14 00:21:38;;;;;;;;;;;;;;;13.18;68.51;95390.03;5005987;28;19940;-82
2023/03/14 00:24:04;;;;;;;;;;;;;;;13.28;67.18;95387.16;5010926;28;20311;-84
2023/03/14 00:26:29;;;;;;;;;;;;;;;13.10;68.47;95369.88;4996842;28;19924;-81
2023/03/14 00:28:54;;;;;;;;;;;;;;;13.08;68.06;95385.09;5028457;28;20372;-83
2023/03/14 00:31:20;;;;;;;;;;;;;;;13.23;68.17;95379.44;5025091;28;19928;-83
2023/03/14 00:33:45;;;;;;;;;;;;;;;13.25;67.92;95374.69;5009219;28;19913;-82
2023/03/14 00:36:16;;;;;;;;;;;;;;;13.11;68.62;95379.28;5009721;28;19967;-82
2023/03/14 00:38:42;;;;;;;;;;;;;;;13.04;68.92;95386.75;5011719;28;19920;-83
2023/03/14 00:41:09;;;;;;;;;;;;;;;13.23;68.25;95387.28;5027060;28;19917;-83
2023/03/14 00:43:34;;;;;;;;;;;;;;;12.90;69.42;95400.72;4996327;28;20368;-81
2023/03/14 00:45:59;;;;;;;;;;;;;;;12.86;69.62;95396.41;5029217;28;19924;-81
2023/03/14 00:48:24;;;;;;;;;;;;;;;12.75;69.85;95401.13;4993896;28;20623;-84
2023/03/14 00:50:50;;;;;;;;;;;;;;;13.16;68.93;95402.66;5028193;28;19924;-81
2023/03/14 00:53:15;;;;;;;;;;;;;;;13.26;68.54;95401.56;4984250;28;19917;-82
2023/03/14 00:55:42;;;;;;;;;;;;;;;13.12;68.89;95399.09;5012038;28;19990;-83
2023/03/14 00:58:07;;;;;;;;;;;;;;;12.98;69.06;95393.97;4996152;28;19951;-82
2023/03/14 01:00:33;;;;;;;;;;;;;;;13.02;69.54;95404.59;5029965;28;19913;-82
2023/03/14 01:02:58;;;;;;;;;;;;;;;12.93;69.57;95392.28;5006946;28;19920;-81
2023/03/14 01:05:23;;;;;;;;;;;;;;;13.07;69.34;95391.38;4995504;28;19917;-82
2023/03/14 01:07:49;;;;;;;;;;;;;;;12.86;70.08;95397.16;5045428;28;20278;-84
2023/03/14 01:10:14;;;;;;;;;;;;;;;12.63;70.27;95393.88;5028887;28;20000;-85
2023/03/14 01:12:39;;;;;;;;;;;;;;;12.87;69.81;95398.72;4993400;28;19944;-82
2023/03/14 01:15:05;;;;;;;;;;;;;;;12.93;69.85;95400.09;5028361;28;19913;-84
2023/03/14 01:17:30;;;;;;;;;;;;;;;12.55;70.29;95395.34;5010852;28;20455;-82
2023/03/14 01:19:55;;;;;;;;;;;;;;;12.41;71.23;95386.09;5028353;28;20273;-84
2023/03/14 01:22:21;;;;;;;;;;;;;;;12.79;69.87;95388.25;5017058;28;19916;-82
2023/03/14 01:24:46;;;;;;;;;;;;;;;12.84;69.82;95404.53;5026380;28;19964;-82
2023/03/14 01:27:12;;;;;;;;;;;;;;;12.99;69.48;95403.38;5011938;28;19921;-82
2023/03/14 01:29:37;;;;;;;;;;;;;;;12.72;70.06;95396.50;4995516;28;20283;-85
2023/03/14 01:32:03;;;;;;;;;;;;;;;12.82;69.87;95393.63;4990552;28;20359;-84
2023/03/14 01:34:28;;;;;;;;;;;;;;;13.00;69.33;95391.84;5009794;28;19913;-83
2023/03/14 01:36:53;;;;;;;;;;;;;;;12.95;69.69;95383.38;5025548;28;19925;-83
2023/03/14 01:39:18;;;;;;;;;;;;;;;13.05;69.22;95372.66;5009696;28;19924;-83
2023/03/14 01:41:44;;;;;;;;;;;;;;;12.91;69.28;95378.75;5007645;28;20320;-85
2023/03/14 01:44:10;;;;;;;;;;;;;;;12.82;70.34;95374.59;4994915;28;19955;-84
2023/03/14 01:46:35;;;;;;;;;;;;;;;12.93;69.52;95363.53;4994910;28;19920;-83
2023/03/14 01:49:05;;;;;;;;;;;;;;;12.34;71.06;95349.97;5029556;28;19920;-83
2023/03/14 01:51:36;;;;;;;;;;;;;;;12.73;70.51;95351.03;4995972;28;19920;-82
2023/03/14 01:54:21;;;;;;;;;;;;;;;13.02;69.18;95340.06;4991805;28;20237;-83
2023/03/14 01:56:49;;;;;;;;;;;;;;;12.70;70.04;95341.97;5005568;28;20389;-83
2023/03/14 01:59:14;;;;;;;;;;;;;;;12.92;68.83;95330.66;5025902;28;20394;-84
2023/03/14 02:01:41;;;;;;;;;;;;;;;12.53;70.42;95337.47;5049066;22;20012;-80
2023/03/14 02:04:06;;;;;;;;;;;;;;;12.81;69.67;95331.25;5013829;28;20384;-82
2023/03/14 02:06:33;;;;;;;;;;;;;;;12.81;69.25;95324.19;4988708;28;19924;-81
2023/03/14 02:08:59;;;;;;;;;;;;;;;12.80;69.21;95316.66;4995705;28;19948;-81
2023/03/14 02:11:26;;;;;;;;;;;;;;;12.66;68.91;95314.16;5025367;28;20292;-82
2023/03/14 02:13:52;;;;;;;;;;;;;;;12.77;69.64;95322.50;5007276;28;19918;-80
2023/03/14 02:16:17;;;;;;;;;;;;;;;13.10;68.24;95323.63;4994185;28;19913;-81
2023/03/14 02:18:42;;;;;;;;;;;;;;;12.83;68.85;95324.63;5014280;28;20015;-81
2023/03/14 02:21:17;;;;;;;;;;;;;;;12.96;68.53;95322.22;5020284;28;20311;-80
2023/03/14 02:23:42;;;;;;;;;;;;;;;12.80;68.80;95325.28;5020242;28;19959;-83
2023/03/14 02:26:11;;;;;;;;;;;;;;;12.90;68.93;95317.16;5015608;28;19960;-81
2023/03/14 02:28:36;;;;;;;;;;;;;;;12.65;69.04;95299.56;4977581;28;20000;-80
2023/03/14 02:31:02;;;;;;;;;;;;;;;12.52;69.93;95301.22;5018182;28;20004;-80
2023/03/14 02:33:27;;;;;;;;;;;;;;;12.78;68.50;95316.19;4986084;28;19964;-81
2023/03/14 02:35:53;;;;;;;;;;;;;;;12.84;67.97;95313.13;4994139;28;19922;-81
2023/03/14 02:38:25;;;;;;;;;;;;;;;12.92;67.28;95312.38;5022791;28;20437;-81
2023/03/14 02:40:50;;;;;;;;;;;;;;;12.86;67.43;95308.38;5026306;28;19913;-80
2023/03/14 02:43:15;;;;;;;;;;;;;;;12.80;68.44;95312.22;5023074;28;19917;-80
2023/03/14 02:45:44;;;;;;;;;;;;;;;12.67;67.82;95311.25;5009326;28;19928;-81
2023/03/14 02:48:14;;;;;;;;;;;;;;;12.46;69.00;95310.28;4997912;28;19917;-81
2023/03/14 02:50:39;;;;;;;;;;;;;;;12.75;67.60;95301.91;4999828;28;19921;-81
2023/03/14 02:53:05;;;;;;;;;;;;;;;12.82;67.17;95288.41;5003582;28;19919;-82
2023/03/14 02:55:30;;;;;;;;;;;;;;;12.76;67.92;95287.00;5015366;28;20335;-81
2023/03/14 02:57:55;;;;;;;;;;;;;;;12.86;66.79;95287.47;4992117;28;19924;-80
2023/03/14 03:00:21;;;;;;;;;;;;;;;12.63;67.62;95283.41;5018388;28;20044;-80
2023/03/14 03:02:46;;;;;;;;;;;;;;;12.46;68.74;95289.38;5014177;28;19918;-80
2023/03/14 03:05:12;;;;;;;;;;;;;;;12.10;68.47;95293.69;5002571;28;20365;-80
2023/03/14 03:07:37;;;;;;;;;;;;;;;12.28;68.97;95291.16;4990513;28;19960;-80
2023/03/14 03:10:03;;;;;;;;;;;;;;;12.49;67.84;95293.97;5004475;28;19914;-79
2023/03/14 03:12:28;;;;;;;;;;;;;;;12.08;69.50;95298.44;4973628;28;19935;-80
2023/03/14 03:14:53;;;;;;;;;;;;;;;11.95;69.42;95291.47;5002249;28;19913;-80
2023/03/14 03:17:18;;;;;;;;;;;;;;;12.17;69.51;95277.63;4973841;28;20462;-80
2023/03/14 03:19:44;;;;;;;;;;;;;;;12.41;68.18;95266.78;4992495;28;19913;-80
2023/03/14 03:22:09;;;;;;;;;;;;;;;12.21;69.49;95257.66;4985207;28;19913;-80
2023/03/14 03:24:34;;;;;;;;;;;;;;;12.07;69.45;95244.72;4993990;28;19917;-81
2023/03/14 03:26:59;;;;;;;;;;;;;;;12.42;68.57;95237.00;5010472;28;20011;-80
2023/03/14 03:29:25;;;;;;;;;;;;;;;12.38;68.27;95240.53;4991643;28;19913;-77
2023/03/14 03:31:50;;;;;;;;;;;;;;;12.15;68.41;95228.34;5010013;28;19925;-79
2023/03/14 03:34:15;;;;;;;;;;;;;;;12.33;68.20;95217.94;5009276;28;19921;-79
2023/03/14 03:36:40;;;;;;;;;;;;;;;12.11;68.74;95209.13;5021132;28;20443;-77
2023/03/14 03:39:05;;;;;;;;;;;;;;;12.21;68.27;95205.47;4989764;28;19914;-80
2023/03/14 03:41:31;;;;;;;;;;;;;;;12.38;68.46;95190.94;5009597;28;19924;-80
2023/03/14 03:43:56;;;;;;;;;;;;;;;12.38;68.02;95209.97;5005520;28;19956;-80
2023/03/14 03:46:21;;;;;;;;;;;;;;;12.06;68.51;95206.66;4992894;28;20012;-80
2023/03/14 03:48:47;;;;;;;;;;;;;;;12.18;68.60;95193.81;4991567;28;20299;-79
2023/03/14 03:51:13;;;;;;;;;;;;;;;12.47;67.47;95197.69;5012131;28;19971;-78
2023/03/14 03:53:39;;;;;;;;;;;;;;;12.11;67.86;95190.88;5025649;28;19924;-78
2023/03/14 03:56:04;;;;;;;;;;;;;;;12.26;67.91;95189.69;4994036;28;19913;-78
2023/03/14 03:58:30;;;;;;;;;;;;;;;12.39;67.29;95198.47;5008593;28;19919;-79
2023/03/14 04:00:55;;;;;;;;;;;;;;;12.11;68.18;95201.31;5011402;28;20000;-80
2023/03/14 04:03:20;;;;;;;;;;;;;;;12.06;69.02;95192.84;4991794;28;19917;-78
2023/03/14 04:05:45;;;;;;;;;;;;;;;11.83;69.69;95186.91;5010713;28;20416;-78
2023/03/14 04:08:11;;;;;;;;;;;;;;;12.07;68.57;95171.69;4977988;28;19975;-79
2023/03/14 04:10:36;;;;;;;;;;;;;;;12.06;68.80;95177.97;4994522;28;19955;-78
2023/03/14 04:13:02;;;;;;;;;;;;;;;12.12;68.34;95179.38;4993016;28;20339;-77
2023/03/14 04:15:27;;;;;;;;;;;;;;;12.07;68.05;95176.13;4993562;28;19945;-78
2023/03/14 04:17:56;;;;;;;;;;;;;;;11.77;69.16;95178.44;4993726;28;20011;-78
2023/03/14 04:20:21;;;;;;;;;;;;;;;11.87;68.45;95180.03;4994192;28;20028;-77
2023/03/14 04:22:46;;;;;;;;;;;;;;;12.11;68.42;95187.50;4993608;28;20015;-78
2023/03/14 04:25:11;;;;;;;;;;;;;;;11.97;69.10;95169.34;4978012;28;19913;-79
2023/03/14 04:27:37;;;;;;;;;;;;;;;11.98;69.24;95182.09;4987110;28;19917;-79
2023/03/14 04:30:02;;;;;;;;;;;;;;;11.65;69.81;95193.88;5002378;28;20407;-80
2023/03/14 04:32:27;;;;;;;;;;;;;;;11.95;68.92;95189.75;4990292;28;19913;-78
2023/03/14 04:34:53;;;;;;;;;;;;;;;12.03;69.12;95188.22;5003644;28;19914;-78
2023/03/14 04:37:18;;;;;;;;;;;;;;;12.00;69.14;95189.63;5009701;28;19924;-79
2023/03/14 04:39:43;;;;;;;;;;;;;;;11.56;70.23;95180.81;4992977;28;19952;-78
2023/03/14 04:42:08;;;;;;;;;;;;;;;11.70;69.17;95172.91;5009296;28;19971;-80
2023/03/14 04:44:34;;;;;;;;;;;;;;;11.96;69.12;95154.75;4992023;28;20283;-79
2023/03/14 04:46:59;;;;;;;;;;;;;;;11.71;69.87;95146.53;4992043;28;20536;-79
2023/03/14 04:49:24;;;;;;;;;;;;;;;11.81;68.91;95151.47;4991269;28;19913;-79
2023/03/14 04:51:51;;;;;;;;;;;;;;;11.66;69.50;95138.84;5004162;28;19913;-78
2023/03/14 04:54:16;;;;;;;;;;;;;;;12.08;67.96;95143.75;5000256;28;19936;-79
2023/03/14 04:56:41;;;;;;;;;;;;;;;11.53;69.69;95131.88;5002890;28;19913;-78
2023/03/14 04:59:08;;;;;;;;;;;;;;;11.73;69.02;95131.34;4993062;28;19917;-79
2023/03/14 05:01:33;;;;;;;;;;;;;;;11.82;69.21;95120.94;5004751;28;19944;-78
2023/03/14 05:03:58;;;;;;;;;;;;;;;11.38;69.42;95114.81;4991603;28;19917;-80
2023/03/14 05:06:24;;;;;;;;;;;;;;;11.36;70.92;95114.34;4992630;28;19925;-78
2023/03/14 05:08:49;;;;;;;;;;;;;;;11.62;69.30;95112.63;4992330;28;20396;-78
2023/03/14 05:11:14;;;;;;;;;;;;;;;11.79;68.85;95116.38;5002149;28;19929;-77
2023/03/14 05:13:39;;;;;;;;;;;;;;;11.58;69.82;95111.69;4998542;28;19913;-80
2023/03/14 05:16:06;;;;;;;;;;;;;;;11.93;68.70;95106.59;5008339;28;20000;-79
2023/03/14 05:18:31;;;;;;;;;;;;;;;11.90;68.78;95119.44;4991595;28;19948;-79
2023/03/14 05:20:56;;;;;;;;;;;;;;;12.00;68.35;95106.16;4975046;28;20280;-79
2023/03/14 05:23:21;;;;;;;;;;;;;;;11.94;68.53;95102.16;5005077;28;19944;-79
2023/03/14 05:25:47;;;;;;;;;;;;;;;11.90;68.19;95111.63;4991851;28;19921;-79
2023/03/14 05:28:12;;;;;;;;;;;;;;;11.46;69.20;95126.34;4992219;28;20277;-78
2023/03/14 05:30:37;;;;;;;;;;;;;;;11.59;68.74;95099.41;4992302;28;19913;-81
2023/03/14 05:33:02;;;;;;;;;;;;;;;11.75;68.31;95092.72;5023368;28;19920;-79
2023/03/14 05:35:28;;;;;;;;;;;;;;;11.95;68.02;95082.84;4984618;28;19921;-79
2023/03/14 05:37:53;;;;;;;;;;;;;;;11.65;68.41;95108.63;5008127;28;19913;-79
2023/03/14 05:40:18;;;;;;;;;;;;;;;11.56;68.61;95094.81;4990560;28;19928;-80
2023/03/14 05:42:43;;;;;;;;;;;;;;;12.00;67.79;95095.72;5004819;28;19936;-79
2023/03/14 05:45:09;;;;;;;;;;;;;;;11.72;68.28;95095.16;4972404;28;20588;-78
2023/03/14 05:47:34;;;;;;;;;;;;;;;11.35;69.16;95090.13;4965950;28;19918;-77
2023/03/14 05:49:59;;;;;;;;;;;;;;;11.75;68.68;95084.88;4981526;28;19913;-78
2023/03/14 05:52:25;;;;;;;;;;;;;;;11.47;68.93;95080.97;5006352;28;20384;-77
2023/03/14 05:54:50;;;;;;;;;;;;;;;11.75;68.63;95079.66;4980818;28;19921;-78
2023/03/14 05:57:15;;;;;;;;;;;;;;;11.87;68.41;95081.69;5000630;28;19983;-78
2023/03/14 05:59:41;;;;;;;;;;;;;;;12.13;67.53;95076.56;4991512;28;19913;-77
2023/03/14 06:02:06;;;;;;;;;;;;;;;12.01;67.93;95070.41;4975235;28;19924;-79
2023/03/14 06:04:31;;;;;;;;;;;;;;;11.75;69.08;95071.84;4991157;28;20380;-79
2023/03/14 06:06:56;;;;;;;;;;;;;;;11.96;68.44;95068.69;4990626;28;19917;-79
2023/03/14 06:09:23;;;;;;;;;;;;;;;11.80;68.99;95056.06;4970772;28;19921;-81
2023/03/14 06:11:48;;;;;;;;;;;;;;;11.20;70.60;95065.22;5001139;28;20016;-79
2023/03/14 06:14:13;;;;;;;;;;;;;;;11.58;69.76;95069.19;4984078;28;20457;-80
2023/03/14 06:16:39;;;;;;;;;;;;;;;11.81;69.34;95060.22;4990468;28;19924;-79
2023/03/14 06:19:04;;;;;;;;;;;;;;;11.77;69.22;95061.91;5006552;28;19964;-80
2023/03/14 06:21:30;;;;;;;;;;;;;;;11.72;69.14;95048.22;4973389;28;19913;-81
2023/03/14 06:23:55;;;;;;;;;;;;;;;11.68;69.58;95049.91;4989626;28;20019;-79
2023/03/14 06:26:20;;;;;;;;;;;;;;;11.89;69.58;95052.72;4979934;28;19932;-79
2023/03/14 06:28:45;;;;;;;;;;;;;;;11.51;70.55;95056.59;4985409;28;19921;-78
2023/03/14 06:31:11;;;;;;;;;;;;;;;11.05;72.06;95058.59;4984925;28;20388;-80
2023/03/14 06:33:36;;;;;;;;;;;;;;;11.34;70.60;95052.09;4988738;28;19913;-78
2023/03/14 06:36:01;;;;;;;;;;;;;;;11.72;70.37;95056.06;5004445;28;20272;-81
2023/03/14 06:38:26;;;;;;;;;;;;;;;11.49;70.53;95055.38;5005647;28;19922;-78
2023/03/14 06:40:52;;;;;;;;;;;;;;;11.39;71.00;95057.19;4973150;28;20296;-79
2023/03/14 06:43:17;;;;;;;;;;;;;;;11.75;69.76;95058.06;5001119;28;19917;-79
2023/03/14 06:45:42;;;;;;;;;;;;;;;11.86;69.45;95066.34;4991177;28;19933;-80
2023/03/14 06:48:07;;;;;;;;;;;;;;;11.81;69.87;95065.44;4972971;28;19917;-79
2023/03/14 06:50:41;;;;;;;;;;;;;;;11.85;69.23;95057.78;4971959;28;20285;-79
2023/03/14 06:53:06;;;;;;;;;;;;;;;11.72;69.60;95069.88;4982636;28;20280;-79
2023/03/14 06:55:32;;;;;;;;;;;;;;;11.75;69.92;95069.25;4987599;28;20044;-81
2023/03/14 06:57:57;;;;;;;;;;;;;;;11.86;69.74;95066.34;4972390;28;19913;-80
2023/03/14 07:00:22;;;;;;;;;;;;;;;11.80;69.79;95065.75;4989626;28;19913;-79
2023/03/14 07:02:48;;;;;;;;;;;;;;;11.87;69.50;95075.72;4969665;28;20008;-79
2023/03/14 07:05:13;;;;;;;;;;;;;;;11.83;69.20;95074.81;4968062;28;20276;-81
2023/03/14 07:07:38;;;;;;;;;;;;;;;11.89;69.12;95070.97;4970963;28;19925;-80
2023/03/14 07:10:04;;;;;;;;;;;;;;;12.07;69.22;95083.00;4969469;28;19927;-81
2023/03/14 07:12:29;;;;;;;;;;;;;;;12.01;68.95;95086.81;4968679;28;19941;-79
2023/03/14 07:14:54;;;;;;;;;;;;;;;12.21;68.73;95085.47;5006743;28;19920;-79
2023/03/14 07:17:19;;;;;;;;;;;;;;;11.98;68.84;95092.66;4979460;28;20004;-80
2023/03/14 07:19:45;;;;;;;;;;;;;;;11.85;69.55;95090.91;5015708;28;19921;-80
2023/03/14 07:22:10;;;;;;;;;;;;;;;11.75;69.85;95115.41;4993293;28;19949;-79
2023/03/14 07:24:35;;;;;;;;;;;;;;;11.83;69.54;95103.50;4994525;28;19917;-81
2023/03/14 07:27:01;;;;;;;;;;;;;;;12.23;68.57;95098.97;4992061;28;20377;-78
2023/03/14 07:29:26;;;;;;;;;;;;;;;11.86;69.31;95097.66;4990975;28;19917;-79
2023/03/14 07:31:51;;;;;;;;;;;;;;;12.21;68.91;95110.78;4991011;28;19913;-78
2023/03/14 07:34:16;;;;;;;;;;;;;;;12.10;68.63;95092.84;4993153;28;20674;-81
2023/03/14 07:36:42;;;;;;;;;;;;;;;12.08;69.01;95102.81;5004944;28;19914;-80
2023/03/14 07:39:07;;;;;;;;;;;;;;;11.75;70.04;95115.41;5006375;28;19917;-80
2023/03/14 07:41:32;;;;;;;;;;;;;;;12.08;69.06;95113.25;4990598;28;20376;-79
2023/03/14 07:43:58;;;;;;;;;;;;;;;12.11;68.20;95104.03;4972187;28;19909;-81
2023/03/14 07:46:23;;;;;;;;;;;;;;;12.25;67.89;95117.72;4991417;28;19983;-79
2023/03/14 07:48:48;;;;;;;;;;;;;;;12.04;68.96;95121.97;4972002;28;19920;-79
2023/03/14 07:51:13;;;;;;;;;;;;;;;12.32;68.34;95117.25;4989589;28;19913;-80
2023/03/14 07:53:39;;;;;;;;;;;;;;;12.43;67.69;95128.94;4990339;28;19924;-79
2023/03/14 07:56:05;;;;;;;;;;;;;;;12.04;68.74;95124.56;5006109;28;19920;-80
2023/03/14 07:58:30;;;;;;;;;;;;;;;12.35;68.05;95133.09;4991223;28;19940;-79
2023/03/14 08:00:55;;;;;;;;;;;;;;;12.32;68.00;95128.47;4974465;28;20280;-79
2023/03/14 08:03:20;;;;;;;;;;;;;;;12.03;69.11;95136.06;5006294;28;19921;-79
2023/03/14 08:05:50;;;;;;;;;;;;;;;12.01;69.42;95146.03;4990191;28;20391;-79
2023/03/14 08:08:15;;;;;;;;;;;;;;;12.10;69.10;95136.41;5008044;28;19917;-78
2023/03/14 08:10:40;;;;;;;;;;;;;;;12.22;69.09;95127.97;5008914;28;20012;-80
2023/03/14 08:13:05;;;;;;;;;;;;;;;11.77;70.30;95128.91;4978701;28;19925;-80
2023/03/14 08:15:31;;;;;;;;;;;;;;;11.77;70.32;95124.47;4993464;28;20012;-78
2023/03/14 08:17:56;;;;;;;;;;;;;;;11.96;69.79;95115.66;4977703;28;19944;-80
2023/03/14 08:20:23;;;;;;;;;;;;;;;12.41;69.03;95136.31;5009808;28;19913;-80
2023/03/14 08:22:48;;;;;;;;;;;;;;;12.27;68.92;95133.03;4994783;28;19920;-78
2023/03/14 08:25:13;;;;;;;;;;;;;;;12.39;69.51;95128.00;4993195;28;20198;-80
2023/03/14 08:27:39;;;;;;;;;;;;;;;12.30;68.93;95127.22;4993552;28;19932;-79
2023/03/14 08:30:08;;;;;;;;;;;;;;;12.03;70.10;95121.22;5010975;28;19913;-78
2023/03/14 08:32:33;;;;;;;;;;;;;;;12.41;68.99;95127.72;4993774;28;20037;-80
2023/03/14 08:34:58;;;;;;;;;;;;;;;12.27;69.88;95127.81;4991393;28;20012;-79
2023/03/14 08:37:24;;;;;;;;;;;;;;;12.53;68.93;95118.19;4992206;28;19919;-79
2023/03/14 08:39:50;;;;;;;;;;;;;;;12.70;68.64;95130.47;5010515;28;19952;-79
2023/03/14 08:42:15;;;;;;;;;;;;;;;12.57;68.56;95133.25;5010075;28;19951;-78
2023/03/14 08:44:41;;;;;;;;;;;;;;;12.31;69.43;95126.91;4977852;28;19920;-79
2023/03/14 08:47:06;;;;;;;;;;;;;;;12.49;69.24;95127.72;4976998;28;19921;-80
2023/03/14 08:49:32;;;;;;;;;;;;;;;12.15;70.13;95131.81;4975335;28;19917;-79
2023/03/14 08:51:58;;;;;;;;;;;;;;;12.50;69.33;95125.88;4993219;28;19945;-78
2023/03/14 08:54:23;;;;;;;;;;;;;;;12.42;68.84;95132.59;5008135;28;20020;-78
2023/03/14 08:56:49;;;;;;;;;;;;;;;12.65;68.83;95135.84;4976262;28;20004;-79
2023/03/14 08:59:14;;;;;;;;;;;;;;;12.26;69.49;95124.47;5008376;28;19917;-80
2023/03/14 09:01:39;;;;;;;;;;;;;;;12.28;70.25;95134.59;4992370;28;20096;-78
2023/03/14 09:04:05;;;;;;;;;;;;;;;12.33;69.75;95127.38;4992886;28;20369;-79
2023/03/14 09:06:30;;;;;;;;;;;;;;;12.19;70.90;95139.78;5010092;28;20384;-79
2023/03/14 09:08:55;;;;;;;;;;;;;;;12.37;70.22;95135.34;4977805;28;20412;-79
2023/03/14 09:11:20;;;;;;;;;;;;;;;12.28;70.42;95142.41;4972483;28;19921;-81
2023/03/14 09:13:46;;;;;;;;;;;;;;;12.20;71.29;95135.34;5009443;28;19948;-79
2023/03/14 09:16:11;;;;;;;;;;;;;;;12.43;70.45;95134.16;5008155;28;19917;-81
2023/03/14 09:18:36;;;;;;;;;;;;;;;12.66;69.99;95142.63;4992670;28;19936;-80
2023/03/14 09:21:02;;;;;;;;;;;;;;;12.60;70.37;95145.69;5008549;28;20000;-79
2023/03/14 09:23:27;;;;;;;;;;;;;;;12.74;69.82;95130.63;4993147;28;19913;-81
2023/03/14 09:25:56;;;;;;;;;;;;;;;12.90;69.63;95139.53;4993174;28;19918;-78
2023/03/14 09:28:21;;;;;;;;;;;;;;;12.57;70.60;95146.28;4992203;28;19975;-80
2023/03/14 09:30:47;;;;;;;;;;;;;;;12.90;69.70;95138.75;4977456;28;19949;-81
2023/03/14 09:33:12;;;;;;;;;;;;;;;13.01;68.62;95147.81;4973770;28;20334;-80
2023/03/14 09:35:37;;;;;;;;;;;;;;;13.08;68.34;95136.91;4993372;28;20008;-79
2023/03/14 09:38:02;;;;;;;;;;;;;;;12.58;69.47;95155.66;5008584;28;20376;-81
2023/03/14 09:40:31;;;;;;;;;;;;;;;12.79;70.10;95146.13;4992922;28;19913;-79
2023/03/14 09:42:58;;;;;;;;;;;;;;;12.84;70.30;95153.06;4993357;28;19959;-81
2023/03/14 09:45:33;;;;;;;;;;;;;;;13.01;69.61;95152.28;4976996;28;19956;-78
2023/03/14 09:47:59;;;;;;;;;;;;;;;12.93;70.20;95154.56;4991093;28;20281;-79
2023/03/14 09:50:24;;;;;;;;;;;;;;;13.01;69.97;95162.72;4972143;28;19921;-81
2023/03/14 09:52:52;;;;;;;;;;;;;;;13.02;69.59;95154.59;4975499;28;20431;-80
2023/03/14 09:55:21;;;;;;;;;;;;;;;13.18;69.29;95154.88;4991222;28;19945;-79
2023/03/14 09:57:48;;;;;;;;;;;;;;;13.42;69.23;95158.84;4993067;28;19920;-81
2023/03/14 10:00:21;;;;;;;;;;;;;;;13.11;70.74;95157.19;4972635;28;20452;-79
2023/03/14 10:02:51;;;;;;;;;;;;;;;12.86;71.89;95159.50;5002790;28;19925;-81
2023/03/14 10:05:18;;;;;;;;;;;;;;;13.22;70.03;95174.06;4992131;28;19937;-81
2023/03/14 10:07:43;;;;;;;;;;;;;;;13.23;69.38;95173.00;5007228;28;20855;-80
2023/03/14 10:10:19;;;;;;;;;;;;;;;13.22;68.67;95168.84;4991410;28;19948;-82
2023/03/14 10:12:45;;;;;;;;;;;;;;;12.76;69.62;95157.19;4976624;28;19913;-79
2023/03/14 10:15:11;;;;;;;;;;;;;;;13.08;69.24;95179.47;4992211;28;19921;-80
2023/03/14 10:17:49;;;;;;;;;;;;;;;13.20;69.37;95181.44;4992252;28;19917;-81
2023/03/14 10:20:32;;;;;;;;;;;;;;;13.24;69.15;95178.97;5007748;28;20329;-80
2023/03/14 10:22:57;;;;;;;;;;;;;;;13.01;69.37;95178.41;5004596;28;20443;-81
2023/03/14 10:25:25;;;;;;;;;;;;;;;12.77;70.85;95178.88;4990519;28;19914;-79
2023/03/14 10:27:50;;;;;;;;;;;;;;;12.72;70.10;95195.44;5005183;28;20008;-80
2023/03/14 10:30:35;;;;;;;;;;;;;;;13.04;69.82;95199.44;5008032;28;20373;-81
2023/03/14 10:33:30;;;;;;;;;;;;;;;13.08;69.69;95194.38;4982843;28;19921;-80
2023/03/14 10:36:05;;;;;;;;;;;;;;;13.13;69.42;95202.06;4993864;28;19920;-80
2023/03/14 10:38:32;;;;;;;;;;;;;;;13.14;69.01;95206.19;5008296;28;20429;-80
2023/03/14 10:40:58;;;;;;;;;;;;;;;13.23;68.53;95204.34;4992007;28;19961;-79
2023/03/14 10:43:33;;;;;;;;;;;;;;;12.71;70.14;95220.00;4968410;28;19921;-80
2023/03/14 10:46:02;;;;;;;;;;;;;;;12.78;69.77;95222.94;5000022;28;19917;-80
2023/03/14 10:48:37;;;;;;;;;;;;;;;12.69;69.53;95243.81;4973336;28;19920;-81
2023/03/14 10:51:03;;;;;;;;;;;;;;;12.38;69.39;95264.03;4990514;28;19967;-79
2023/03/14 10:53:32;;;;;;;;;;;;;;;12.44;68.62;95268.00;4991357;28;19913;-80
2023/03/14 10:55:57;;;;;;;;;;;;;;;12.45;67.72;95278.16;4994780;28;19921;-79
2023/03/14 10:58:24;;;;;;;;;;;;;;;11.90;68.35;95288.97;4991241;28;20138;-78
2023/03/14 11:01:09;;;;;;;;;;;;;;;11.59;69.36;95300.88;4987520;28;19917;-79
2023/03/14 11:03:35;;;;;;;;;;;;;;;11.57;69.49;95310.84;4998053;28;19913;-79
2023/03/14 11:06:10;;;;;;;;;;;;;;;11.42;69.28;95311.19;4989923;28;19924;-80
2023/03/14 11:08:37;;;;;;;;;;;;;;;11.29;69.59;95315.34;4990644;28;19936;-78
2023/03/14 11:11:23;;;;;;;;;;;;;;;11.19;69.43;95333.81;5002357;28;19921;-79
2023/03/14 11:13:52;;;;;;;;;;;;;;;11.25;69.81;95343.06;5020316;28;20392;-78
2023/03/14 11:16:36;;;;;;;;;;;;;;;10.86;70.44;95339.19;5005355;28;19924;-80
2023/03/14 11:19:13;;;;;;;;;;;;;;;10.57;70.69;95353.25;5008664;28;19920;-80
2023/03/14 11:21:38;;;;;;;;;;;;;;;10.99;69.86;95359.22;5005382;28;19921;-78
2023/03/14 11:24:13;;;;;;;;;;;;;;;11.02;70.71;95360.50;5006407;28;19919;-80
2023/03/14 11:26:44;;;;;;;;;;;;;;;10.99;69.97;95380.06;5007434;28;20650;-78
2023/03/14 11:29:27;;;;;;;;;;;;;;;11.29;68.97;95385.72;4988727;28;19922;-78
2023/03/14 11:31:54;;;;;;;;;;;;;;;10.76;69.61;95394.03;5006868;28;19913;-79
2023/03/14 11:34:29;;;;;;;;;;;;;;;10.70;69.66;95409.00;4990882;28;20348;-78
2023/03/14 11:36:54;;;;;;;;;;;;;;;10.85;68.85;95418.38;4991641;28;20001;-78
2023/03/14 11:39:20;;;;;;;;;;;;;;;11.06;68.57;95431.75;5004687;28;20067;-77
2023/03/14 11:41:46;;;;;;;;;;;;;;;10.75;69.25;95431.56;4976168;28;19920;-77
2023/03/14 11:44:22;;;;;;;;;;;;;;;10.61;68.91;95449.75;5009026;28;19913;-78
2023/03/14 11:47:11;;;;;;;;;;;;;;;10.53;69.47;95453.78;4994979;28;19917;-78
2023/03/14 11:49:41;;;;;;;;;;;;;;;10.47;68.87;95481.72;5005201;28;19913;-78
2023/03/14 11:52:15;;;;;;;;;;;;;;;10.37;69.34;95492.28;4989823;28;19953;-79
2023/03/14 11:54:45;;;;;;;;;;;;;;;9.97;69.47;95506.63;4993306;28;19913;-78
2023/03/14 11:57:20;;;;;;;;;;;;;;;10.27;68.97;95516.59;4992468;28;20004;-78
2023/03/14 12:00:09;;;;;;;;;;;;;;;10.17;68.26;95515.97;5008725;28;19921;-78
2023/03/14 12:02:37;;;;;;;;;;;;;;;10.21;68.60;95533.34;4992753;28;19917;-78
2023/03/14 12:05:22;;;;;;;;;;;;;;;10.19;67.88;95542.47;4991562;28;20448;-78
2023/03/14 12:07:50;;;;;;;;;;;;;;;10.38;67.63;95537.28;4991220;28;19949;-79
2023/03/14 12:10:15;;;;;;;;;;;;;;;10.79;66.12;95555.63;5009347;28;19914;-80
2023/03/14 12:12:40;;;;;;;;;;;;;;;11.00;64.29;95565.72;5008617;28;19987;-78
2023/03/14 12:15:15;;;;;;;;;;;;;;;11.32;65.62;95553.72;4992955;28;20431;-78
2023/03/14 12:17:42;;;;;;;;;;;;;;;11.60;62.05;95568.31;4987391;28;19921;-79
2023/03/14 12:20:17;;;;;;;;;;;;;;;11.40;60.08;95579.88;4987638;28;19920;-80
2023/03/14 12:22:53;;;;;;;;;;;;;;;11.08;60.79;95569.50;4977979;28;19968;-79
2023/03/14 12:25:22;;;;;;;;;;;;;;;11.55;58.36;95570.22;4990798;28;20297;-79
2023/03/14 12:27:48;;;;;;;;;;;;;;;11.73;58.01;95590.22;4994525;28;19971;-78
2023/03/14 12:30:34;;;;;;;;;;;;;;;12.20;56.14;95578.88;5009899;28;19917;-77
2023/03/14 12:33:08;;;;;;;;;;;;;;;12.16;56.82;95594.34;4992815;28;19918;-79
2023/03/14 12:35:37;;;;;;;;;;;;;;;11.96;54.99;95609.38;5003395;28;19979;-79
2023/03/14 12:38:03;;;;;;;;;;;;;;;12.00;56.29;95625.22;4993739;28;19913;-78
2023/03/14 12:40:32;;;;;;;;;;;;;;;11.94;55.00;95632.38;4993641;28;21265;-79
2023/03/14 12:42:59;;;;;;;;;;;;;;;11.73;55.36;95644.97;4992354;28;19976;-79
2023/03/14 12:45:24;;;;;;;;;;;;;;;11.42;55.54;95639.53;4977807;28;19947;-77
2023/03/14 12:47:51;;;;;;;;;;;;;;;11.50;53.98;95662.34;5009958;28;19964;-80